Time;durP1;ratioP1;P1;durP2;ratioP2;P2;SDS_P1;SDS_P2;PMS_P1;PMS_P2;Temp;Humidity;BMP_temperature;BMP_pressure;BME280_temperature;BME280_humidity;BME280_pressure;Samples;Min_cycle;Max_cycle;Signal;HPM_P1;HPM_P2
2022/11/17 00:01:58;;;;;;;8.52;3.45;;;;;;;15.21;81.40;96041.03;4901231;29;20031;-77
2022/11/17 00:04:29;;;;;;;6.90;3.47;;;;;;;15.20;80.72;96021.34;4895178;29;20123;-77
2022/11/17 00:06:56;;;;;;;5.82;2.72;;;;;;;15.27;80.17;96032.31;4887296;29;20035;-77
2022/11/17 00:09:22;;;;;;;4.88;3.35;;;;;;;15.24;80.56;96029.09;4894738;29;20063;-77
2022/11/17 00:14:32;;;;;;;4.75;2.80;;;;;;;15.21;80.66;96019.50;4903029;29;20035;-77
2022/11/17 00:17:19;;;;;;;8.00;3.35;;;;;;;15.21;80.82;96014.09;4893164;29;20474;-77
2022/11/17 00:22:31;;;;;;;11.40;3.20;;;;;;;15.48;77.86;96005.81;4916436;29;20034;-77
2022/11/17 00:24:57;;;;;;;5.32;2.75;;;;;;;15.37;77.99;95984.53;4908249;29;20048;-77
2022/11/17 00:27:23;;;;;;;11.45;3.28;;;;;;;15.51;77.03;95986.63;4904983;29;20032;-77
2022/11/17 00:29:48;;;;;;;5.13;2.90;;;;;;;15.40;77.86;95972.59;4891937;29;20028;-77
2022/11/17 00:35:45;;;;;;;9.13;3.65;;;;;;;14.99;77.40;95910.50;4911370;29;20055;-78
2022/11/17 00:38:38;;;;;;;7.05;3.75;;;;;;;15.00;77.99;95919.41;4904689;29;20037;-79
2022/11/17 00:41:22;;;;;;;5.75;3.55;;;;;;;15.02;78.48;95925.47;4842363;29;20039;-79
2022/11/17 00:44:10;;;;;;;7.95;3.20;;;;;;;15.18;78.09;95960.56;4868776;29;20067;-78
2022/11/17 00:46:40;;;;;;;5.35;2.88;;;;;;;14.99;78.17;95918.56;4911839;29;20058;-78
2022/11/17 00:52:00;;;;;;;8.50;3.25;;;;;;;14.99;77.93;95906.94;4860097;29;20067;-77
2022/11/17 00:54:52;;;;;;;5.85;3.50;;;;;;;15.10;78.92;95939.00;4886809;29;20040;-78
2022/11/17 01:01:19;;;;;;;5.00;3.13;;;;;;;14.79;79.90;95905.53;4859137;29;20044;-78
2022/11/17 01:07:15;;;;;;;9.95;3.63;;;;;;;14.68;80.15;95903.09;4870182;29;20045;-79
2022/11/17 01:09:59;;;;;;;7.57;3.72;;;;;;;15.13;79.65;95973.69;4841599;29;20140;-78
2022/11/17 01:13:19;;;;;;;6.22;3.63;;;;;;;14.84;80.29;95935.47;4862132;29;20045;-79
2022/11/17 01:16:06;;;;;;;4.57;3.45;;;;;;;14.72;80.31;95916.09;4864205;29;20037;-80
2022/11/17 01:19:13;;;;;;;9.27;3.13;;;;;;;14.71;80.63;95908.16;4845513;29;20544;-80
2022/11/17 01:22:36;;;;;;;5.95;3.40;;;;;;;15.07;80.56;95968.94;4864966;29;20036;-78
2022/11/17 01:25:27;;;;;;;7.17;3.60;;;;;;;14.81;79.99;95919.66;4899953;29;20032;-78
2022/11/17 01:28:31;;;;;;;8.75;3.28;;;;;;;14.79;79.62;95889.38;4892536;29;20299;-78
2022/11/17 01:35:23;;;;;;;5.32;3.15;;;;;;;14.74;80.75;95884.47;4846136;29;20033;-78
2022/11/17 01:38:04;;;;;;;9.35;3.33;;;;;;;14.83;80.95;95904.19;4883989;29;20171;-78
2022/11/17 01:47:52;;;;;;;5.40;3.00;;;;;;;15.42;78.96;95935.53;4886354;29;20050;-80
2022/11/17 01:53:50;;;;;;;5.35;3.05;;;;;;;15.29;79.61;95897.47;4908307;29;20028;-78
2022/11/17 01:56:20;;;;;;;6.65;2.80;;;;;;;15.18;79.28;95872.53;4916300;29;20098;-77
2022/11/17 01:58:52;;;;;;;4.72;2.65;;;;;;;15.43;78.76;95902.22;4888405;29;20514;-77
2022/11/17 02:01:17;;;;;;;7.78;3.80;;;;;;;15.44;78.61;95899.34;4886212;29;20092;-77
2022/11/17 02:03:45;;;;;;;8.63;3.15;;;;;;;15.55;78.26;95904.47;4882445;29;20036;-77
2022/11/17 02:06:15;;;;;;;4.57;2.72;;;;;;;15.56;78.01;95851.41;4890240;29;20039;-77
2022/11/17 02:08:42;;;;;;;7.00;3.22;;;;;;;15.62;78.24;95873.16;4888562;29;20040;-77
2022/11/17 02:11:11;;;;;;;5.05;3.05;;;;;;;15.60;78.30;95879.69;4881799;29;20179;-78
2022/11/17 02:13:38;;;;;;;4.93;3.42;;;;;;;15.64;77.62;95865.72;4891640;29;20408;-77
2022/11/17 02:16:04;;;;;;;5.45;3.03;;;;;;;15.64;77.87;95890.00;4885423;29;20509;-77
2022/11/17 02:18:29;;;;;;;2.30;1.65;;;;;;;15.69;77.46;95884.06;4900857;29;20503;-77
2022/11/17 02:21:36;;;;;;;4.75;2.13;;;;;;;15.72;77.61;95889.13;4920077;29;20032;-77
2022/11/17 02:24:24;;;;;;;3.67;2.53;;;;;;;15.78;76.85;95888.47;4913605;29;20067;-78
2022/11/17 02:27:02;;;;;;;7.53;2.63;;;;;;;15.83;76.59;95885.28;4908266;29;20091;-77
2022/11/17 02:29:49;;;;;;;6.47;2.58;;;;;;;15.76;76.77;95895.88;4926563;29;20043;-77
2022/11/17 02:32:30;;;;;;;3.13;1.67;;;;;;;15.84;76.37;95881.59;4893325;29;20097;-78
2022/11/17 02:35:38;;;;;;;3.83;2.30;;;;;;;15.85;76.40;95881.41;4887998;29;20059;-77
2022/11/17 02:38:40;;;;;;;5.78;2.45;;;;;;;15.84;76.28;95893.22;4907781;29;20390;-79
2022/11/17 02:41:11;;;;;;;4.95;2.47;;;;;;;15.76;76.47;95868.09;4899831;29;20399;-78
2022/11/17 02:46:33;;;;;;;5.20;2.58;;;;;;;15.66;76.95;95846.69;4900598;29;20047;-78
2022/11/17 02:49:14;;;;;;;6.68;3.47;;;;;;;15.68;77.08;95863.53;4892597;29;20088;-78
2022/11/17 02:51:42;;;;;;;4.93;2.83;;;;;;;15.69;76.90;95860.66;4908780;29;20027;-76
2022/11/17 02:54:08;;;;;;;6.22;3.47;;;;;;;15.68;77.13;95867.09;4908629;29;20563;-77
2022/11/17 02:56:39;;;;;;;5.38;2.53;;;;;;;15.75;76.83;95866.41;4884422;29;20052;-76
2022/11/17 02:59:05;;;;;;;5.93;3.23;;;;;;;15.77;76.93;95861.69;4901366;29;20117;-77
2022/11/17 03:02:06;;;;;;;3.83;2.42;;;;;;;15.83;76.71;95885.28;4903807;29;20067;-77
2022/11/17 03:04:56;;;;;;;3.72;2.30;;;;;;;15.91;76.16;95885.28;4896109;29;20549;-78
2022/11/17 03:08:06;;;;;;;9.07;3.10;;;;;;;15.93;76.04;95875.19;4905482;29;20027;-78
2022/11/17 03:10:40;;;;;;;4.15;2.70;;;;;;;15.97;76.01;95861.16;4880808;29;20164;-78
2022/11/17 03:13:27;;;;;;;3.83;2.13;;;;;;;15.99;75.77;95869.13;4900109;29;20453;-78
2022/11/17 03:16:07;;;;;;;4.65;2.50;;;;;;;16.07;75.41;95882.56;4901554;29;20452;-77
2022/11/17 03:18:45;;;;;;;3.97;2.42;;;;;;;16.02;75.61;95868.78;4904490;29;20032;-78
2022/11/17 03:21:33;;;;;;;7.80;3.15;;;;;;;16.01;75.74;95858.97;4907625;29;20036;-78
2022/11/17 03:24:05;;;;;;;4.65;2.67;;;;;;;15.95;76.09;95847.03;4916406;29;20088;-78
2022/11/17 03:26:52;;;;;;;3.00;1.83;;;;;;;15.88;76.37;95853.25;4906198;29;20115;-77
2022/11/17 03:29:20;;;;;;;4.75;2.90;;;;;;;15.79;76.96;95867.75;4915494;29;20074;-77
2022/11/17 03:31:47;;;;;;;6.88;2.95;;;;;;;15.75;77.16;95861.03;4906629;29;20520;-79
2022/11/17 03:34:15;;;;;;;6.13;3.30;;;;;;;15.78;77.33;95876.88;4902637;29;20039;-76
2022/11/17 03:36:45;;;;;;;6.88;2.97;;;;;;;15.70;77.26;95870.44;4902722;29;20114;-79
2022/11/17 03:39:16;;;;;;;5.60;2.15;;;;;;;15.63;78.28;95850.56;4892987;29;20481;-77
2022/11/17 03:41:45;;;;;;;5.93;2.60;;;;;;;15.58;77.94;95861.00;4890661;29;20448;-78
2022/11/17 03:44:14;;;;;;;4.57;2.88;;;;;;;15.56;78.06;95852.25;4902057;29;20127;-76
2022/11/17 03:46:42;;;;;;;8.00;3.05;;;;;;;15.57;78.51;95870.09;4884374;29;20039;-77
2022/11/17 03:49:22;;;;;;;7.20;3.40;;;;;;;15.56;78.64;95863.03;4911302;29;20405;-79
2022/11/17 03:51:48;;;;;;;5.45;3.15;;;;;;;15.59;78.34;95869.94;4903500;29;20580;-79
2022/11/17 03:54:13;;;;;;;5.32;3.42;;;;;;;15.55;78.72;95852.41;4884157;29;20028;-77
2022/11/17 03:57:03;;;;;;;6.55;3.60;;;;;;;15.48;78.12;95827.97;4915614;29;20035;-77
2022/11/17 03:59:52;;;;;;;10.77;4.97;;;;;;;15.75;78.01;95866.41;4907935;29;20027;-79
2022/11/17 04:02:19;;;;;;;18.08;6.57;;;;;;;15.73;78.16;95855.78;4901797;29;20134;-78
2022/11/17 04:05:05;;;;;;;8.63;4.35;;;;;;;15.75;77.88;95848.38;4895732;29;20059;-80
2022/11/17 04:07:37;;;;;;;10.10;4.03;;;;;;;15.81;77.88;95852.25;4897555;29;20043;-81
2022/11/17 04:10:10;;;;;;;7.30;3.13;;;;;;;15.82;77.95;95862.00;4899475;29;20126;-80
2022/11/17 04:18:05;;;;;;;8.43;3.33;;;;;;;15.95;77.39;95852.41;4909056;29;20042;-79
2022/11/17 04:20:34;;;;;;;6.47;3.38;;;;;;;15.90;77.09;95843.16;4898408;29;20480;-80
2022/11/17 04:23:08;;;;;;;11.55;4.80;;;;;;;15.85;77.61;95830.16;4902533;29;20036;-80
2022/11/17 04:28:36;;;;;;;3.78;2.13;;;;;;;15.69;80.10;95840.94;4911174;29;20107;-80
2022/11/17 04:31:21;;;;;;;5.45;3.42;;;;;;;15.49;83.45;95862.00;4892544;29;20065;-80
2022/11/17 04:33:55;;;;;;;7.13;2.78;;;;;;;15.12;88.07;95870.47;4911152;29;20047;-80
2022/11/17 04:36:25;;;;;;;9.80;4.07;;;;;;;14.57;93.69;95862.03;4891664;29;20032;-80
2022/11/17 04:38:53;;;;;;;5.80;3.47;;;;;;;14.30;98.60;95867.56;4913363;29;20035;-82
2022/11/17 04:44:05;;;;;;;8.52;4.40;;;;;;;13.77;100.00;95885.66;4911602;29;20034;-81
2022/11/17 04:46:32;;;;;;;14.75;6.03;;;;;;;13.58;100.00;95895.56;4890561;29;20020;-81
2022/11/17 04:49:01;;;;;;;10.40;5.32;;;;;;;13.47;100.00;95892.28;4887012;29;20028;-80
2022/11/17 04:51:27;;;;;;;11.82;4.13;;;;;;;13.30;100.00;95895.78;4895098;29;20043;-80
2022/11/17 04:53:53;;;;;;;8.02;4.32;;;;;;;13.26;100.00;95908.66;4891210;29;20032;-79
2022/11/17 04:56:20;;;;;;;7.18;4.53;;;;;;;13.09;100.00;95906.81;4890792;29;20063;-82
2022/11/17 04:58:46;;;;;;;9.75;4.97;;;;;;;13.07;100.00;95908.78;4898649;29;20388;-81
2022/11/17 05:01:11;;;;;;;7.57;4.22;;;;;;;13.12;100.00;95919.06;4895876;29;20036;-82
2022/11/17 05:03:41;;;;;;;8.25;3.97;;;;;;;13.11;100.00;95890.53;4898650;29;20035;-81
2022/11/17 05:06:09;;;;;;;13.07;4.65;;;;;;;13.24;100.00;95910.66;4902876;29;20028;-81
2022/11/17 05:08:36;;;;;;;6.18;4.07;;;;;;;13.32;100.00;95905.38;4896158;29;20031;-80
2022/11/17 05:13:48;;;;;;;8.00;3.58;;;;;;;13.70;100.00;95916.81;4903587;29;20047;-73
2022/11/17 05:18:58;;;;;;;7.45;3.53;;;;;;;14.11;100.00;95895.50;4900906;29;20186;-73
2022/11/17 05:21:23;;;;;;;6.38;3.47;;;;;;;14.29;100.00;95887.38;4899212;29;20118;-81
2022/11/17 05:23:55;;;;;;;4.28;2.63;;;;;;;14.43;100.00;95894.91;4907894;29;20062;-82
2022/11/17 05:26:26;;;;;;;6.28;3.40;;;;;;;14.53;100.00;95894.78;4913483;29;20499;-80
2022/11/17 05:28:54;;;;;;;5.75;3.15;;;;;;;14.63;100.00;95901.75;4899883;29;20058;-82
2022/11/17 05:31:19;;;;;;;4.57;3.08;;;;;;;14.63;100.00;95917.03;4898097;29;20476;-81
2022/11/17 05:33:45;;;;;;;4.22;3.00;;;;;;;14.58;100.00;95914.81;4895613;29;20039;-81
2022/11/17 05:36:11;;;;;;;6.30;3.20;;;;;;;14.49;100.00;95923.00;4905250;29;20036;-82
2022/11/17 05:38:39;;;;;;;7.53;3.58;;;;;;;14.40;100.00;95924.81;4895016;29;20046;-82
2022/11/17 05:41:04;;;;;;;7.05;3.33;;;;;;;14.33;100.00;95926.47;4885499;29;20473;-82
2022/11/17 05:43:30;;;;;;;7.60;3.58;;;;;;;14.28;100.00;95930.56;4893626;29;20118;-82
2022/11/17 05:45:56;;;;;;;5.65;3.15;;;;;;;14.15;100.00;95928.28;4902269;29;20036;-82
2022/11/17 05:48:21;;;;;;;3.30;2.40;;;;;;;14.05;100.00;95919.50;4887877;29;20050;-82
2022/11/17 05:50:47;;;;;;;6.72;4.55;;;;;;;13.86;100.00;95916.97;4896051;29;20415;-82
2022/11/17 05:53:12;;;;;;;7.45;3.13;;;;;;;13.77;100.00;95931.34;4917224;29;20035;-82
2022/11/17 05:55:38;;;;;;;6.20;3.92;;;;;;;13.60;100.00;95932.19;4900583;29;20456;-81
2022/11/17 05:58:10;;;;;;;15.15;5.18;;;;;;;13.39;100.00;95921.72;4894911;29;20056;-82
2022/11/17 06:00:37;;;;;;;8.52;4.30;;;;;;;13.34;100.00;95932.94;4892927;29;20046;-82
2022/11/17 06:03:07;;;;;;;8.05;3.47;;;;;;;13.45;100.00;95940.75;4887360;29;20040;-81
2022/11/17 06:05:33;;;;;;;6.20;3.28;;;;;;;13.54;100.00;95931.78;4886383;29;20028;-81
2022/11/17 06:07:58;;;;;;;6.47;3.60;;;;;;;13.67;100.00;95949.38;4893454;29;20411;-80
2022/11/17 06:10:25;;;;;;;9.27;3.90;;;;;;;13.85;100.00;95958.28;4885714;29;20035;-80
2022/11/17 06:12:55;;;;;;;6.68;3.70;;;;;;;14.02;100.00;95960.97;4885670;29;20068;-81
2022/11/17 06:15:21;;;;;;;5.97;3.13;;;;;;;14.27;100.00;95966.53;4905844;29;20487;-80
2022/11/17 06:18:01;;;;;;;7.72;3.55;;;;;;;14.31;100.00;95954.44;4897839;29;20035;-83
2022/11/17 06:20:36;;;;;;;8.95;4.60;;;;;;;14.49;100.00;95980.34;4912621;29;20070;-82
2022/11/17 06:23:04;;;;;;;52.17;20.10;;;;;;;14.65;100.00;95982.31;4897101;29;20035;-82
2022/11/17 06:25:31;;;;;;;38.10;16.17;;;;;;;14.71;100.00;95995.13;4900162;29;20449;-81
2022/11/17 06:27:58;;;;;;;22.52;9.65;;;;;;;14.76;100.00;95989.28;4895003;29;20044;-81
2022/11/17 06:30:30;;;;;;;8.43;4.13;;;;;;;14.63;100.00;95993.25;4897662;29;20032;-83
2022/11/17 06:32:56;;;;;;;11.32;5.55;;;;;;;14.12;100.00;95977.84;4897407;29;20043;-81
2022/11/17 06:35:22;;;;;;;8.73;5.68;;;;;;;13.87;100.00;96002.81;4921224;29;20031;-83
2022/11/17 06:37:48;;;;;;;24.35;14.45;;;;;;;13.66;100.00;96009.50;4900175;29;20503;-81
2022/11/17 06:40:14;;;;;;;27.75;13.60;;;;;;;13.52;100.00;96022.44;4896007;29;20038;-82
2022/11/17 06:45:23;;;;;;;0.65;0.63;;;;;;;13.15;100.00;96045.81;4907540;29;20066;-83
2022/11/17 06:47:52;;;;;;;0.77;0.70;;;;;;;13.07;100.00;96053.72;4905786;29;20031;-84
2022/11/17 06:50:18;;;;;;;0.82;0.82;;;;;;;13.11;100.00;96087.34;4905455;29;20463;-83
2022/11/17 06:52:43;;;;;;;2.03;1.35;;;;;;;13.07;100.00;96094.00;4891672;29;20139;-82
2022/11/17 06:55:09;;;;;;;3.35;2.35;;;;;;;13.07;100.00;96098.50;4893087;29;20039;-82
2022/11/17 06:57:35;;;;;;;1.63;1.15;;;;;;;13.05;100.00;96125.47;4886142;29;20048;-83
2022/11/17 07:00:00;;;;;;;1.38;1.13;;;;;;;13.04;100.00;96142.59;4892916;29;20032;-81
2022/11/17 07:02:26;;;;;;;7.60;4.85;;;;;;;13.08;100.00;96160.13;4885945;29;20043;-82
2022/11/17 07:04:51;;;;;;;1.50;1.40;;;;;;;13.04;100.00;96150.66;4893863;29;20412;-82
2022/11/17 07:07:17;;;;;;;3.78;2.20;;;;;;;13.04;100.00;96158.69;4892049;29;20040;-83
2022/11/17 07:09:43;;;;;;;4.38;2.00;;;;;;;13.14;100.00;96169.44;4891231;29;20032;-83
2022/11/17 07:12:15;;;;;;;1.45;1.25;;;;;;;13.12;100.00;96161.53;4903128;29;20028;-84
2022/11/17 07:14:40;;;;;;;1.73;1.02;;;;;;;12.93;100.00;96169.56;4897298;29;20072;-82
2022/11/17 07:17:27;;;;;;;8.73;5.15;;;;;;;12.94;100.00;96171.28;4904203;29;20144;-81
2022/11/17 07:19:53;;;;;;;3.92;1.65;;;;;;;12.83;100.00;96184.84;4900265;29;20048;-82
2022/11/17 07:22:19;;;;;;;2.17;1.88;;;;;;;12.89;100.00;96203.91;4910572;29;20027;-83
2022/11/17 07:24:45;;;;;;;0.98;0.95;;;;;;;12.85;100.00;96215.06;4885746;29;20028;-81
2022/11/17 07:27:10;;;;;;;7.30;3.83;;;;;;;12.91;100.00;96219.88;4884854;29;20039;-82
2022/11/17 07:29:36;;;;;;;10.88;5.07;;;;;;;13.03;100.00;96253.63;4884761;29;20036;-82
2022/11/17 07:32:01;;;;;;;17.15;7.07;;;;;;;13.03;100.00;96229.47;4884722;29;20027;-83
2022/11/17 07:34:27;;;;;;;5.28;2.85;;;;;;;12.96;100.00;96190.75;4899545;29;21428;-81
2022/11/17 07:36:52;;;;;;;3.35;1.95;;;;;;;13.01;100.00;96159.81;4899901;29;20032;-83
2022/11/17 07:39:18;;;;;;;1.65;1.15;;;;;;;13.00;100.00;96119.72;4892693;29;20113;-84
2022/11/17 07:41:43;;;;;;;0.10;0.10;;;;;;;12.92;100.00;96065.94;4891479;29;20142;-83
2022/11/17 07:44:10;;;;;;;0.47;0.47;;;;;;;12.86;100.00;96023.53;4928848;29;20077;-84
2022/11/17 07:46:36;;;;;;;0.38;0.35;;;;;;;12.88;100.00;96000.09;4904209;29;20023;-82
2022/11/17 07:49:01;;;;;;;1.35;0.68;;;;;;;12.90;100.00;95965.91;4903212;29;20475;-81
2022/11/17 07:51:27;;;;;;;0.85;0.65;;;;;;;13.03;100.00;95934.22;4893406;29;20419;-81
2022/11/17 07:53:52;;;;;;;0.43;0.43;;;;;;;12.90;100.00;95929.19;4897185;29;20506;-81
2022/11/17 07:56:21;;;;;;;0.25;0.17;;;;;;;13.00;100.00;96006.97;4894924;29;20114;-81
2022/11/17 07:58:46;;;;;;;1.88;1.10;;;;;;;13.07;100.00;96067.16;4890043;29;20086;-81
2022/11/17 08:01:14;;;;;;;1.10;0.52;;;;;;;13.22;100.00;96100.59;4883027;29;20500;-80
2022/11/17 08:03:40;;;;;;;1.48;0.73;;;;;;;13.58;100.00;96072.03;4886544;29;20059;-80
2022/11/17 08:06:06;;;;;;;1.20;0.32;;;;;;;13.75;100.00;96065.00;4887472;29;20084;-80
2022/11/17 08:08:32;;;;;;;0.10;0.10;;;;;;;13.95;100.00;96056.66;4900558;29;20035;-80
2022/11/17 08:11:09;;;;;;;0.10;0.10;;;;;;;14.17;100.00;96059.91;4888539;29;20484;-80
2022/11/17 08:13:35;;;;;;;0.68;0.68;;;;;;;14.33;100.00;96046.66;4882405;29;20069;-81
2022/11/17 08:16:01;;;;;;;1.52;1.08;;;;;;;14.42;100.00;96053.78;4890663;29;20058;-80
2022/11/17 08:18:30;;;;;;;0.32;0.32;;;;;;;14.53;100.00;96058.91;4915563;29;20055;-81
2022/11/17 08:21:13;;;;;;;0.60;0.43;;;;;;;14.67;100.00;96076.34;4904587;29;20039;-81
2022/11/17 08:23:39;;;;;;;1.15;0.70;;;;;;;14.74;100.00;96089.00;4901047;29;20046;-80
2022/11/17 08:35:45;;;;;;;1.00;0.83;;;;;;;15.09;100.00;96099.72;4922759;29;20115;-81
2022/11/17 08:38:14;;;;;;;0.22;0.22;;;;;;;15.26;97.91;96097.97;4896947;29;20522;-81
2022/11/17 08:40:40;;;;;;;2.05;1.40;;;;;;;15.33;96.63;96096.31;4885895;29;20144;-81
2022/11/17 08:43:05;;;;;;;1.92;1.55;;;;;;;15.36;93.92;96087.91;4911547;29;20058;-81
2022/11/17 08:45:31;;;;;;;0.40;0.40;;;;;;;15.43;91.01;96088.97;4891451;29;20032;-80
2022/11/17 08:47:56;;;;;;;3.70;2.33;;;;;;;15.42;90.75;96086.44;4901138;29;20119;-81
2022/11/17 08:50:22;;;;;;;0.85;0.70;;;;;;;15.47;91.48;96087.66;4887203;29;20040;-81
2022/11/17 08:52:48;;;;;;;2.53;1.17;;;;;;;15.63;91.31;96094.97;4914242;29;20039;-81
2022/11/17 08:55:14;;;;;;;0.10;0.10;;;;;;;15.82;90.17;96097.44;4904893;29;20031;-80
2022/11/17 08:57:39;;;;;;;0.20;0.10;;;;;;;16.09;87.46;96082.84;4864380;29;1262598;-81
2022/11/17 09:00:06;;;;;;;0.98;0.55;;;;;;;16.57;85.16;96074.88;4889064;29;20055;-81
2022/11/17 09:02:32;;;;;;;0.60;0.60;;;;;;;17.35;77.78;96077.81;4901748;29;20054;-81
2022/11/17 09:04:57;;;;;;;0.77;0.40;;;;;;;18.10;76.87;96091.78;4889920;29;20496;-81
2022/11/17 09:07:23;;;;;;;0.13;0.13;;;;;;;20.23;68.00;96089.53;4890540;29;20028;-81
2022/11/17 09:09:48;;;;;;;0.95;0.82;;;;;;;20.85;64.11;96062.66;4901423;29;20087;-82
2022/11/17 09:12:14;;;;;;;0.50;0.50;;;;;;;22.76;56.29;96079.16;4917457;29;20028;-81
2022/11/17 09:14:40;;;;;;;7.18;0.35;;;;;;;24.39;49.96;96060.13;4916158;29;20111;-81
2022/11/17 09:17:06;;;;;;;0.00;0.00;;;;;;;25.13;46.75;96020.09;4883153;29;20165;-83
2022/11/17 09:19:31;;;;;;;0.57;0.32;;;;;;;25.45;46.06;95978.97;4883272;29;20032;-81
2022/11/17 09:21:57;;;;;;;0.20;0.15;;;;;;;23.99;46.97;95934.59;4890967;29;20182;-80
2022/11/17 09:24:22;;;;;;;0.10;0.10;;;;;;;24.25;45.96;95959.06;4890111;29;20032;-80
2022/11/17 09:26:48;;;;;;;0.80;0.73;;;;;;;25.53;44.68;95982.31;4892544;29;20031;-81
2022/11/17 09:29:14;;;;;;;0.13;0.13;;;;;;;25.52;43.86;95961.47;4893397;29;20122;-79
2022/11/17 09:31:39;;;;;;;0.63;0.22;;;;;;;24.41;45.03;95924.91;4892491;29;20028;-80
2022/11/17 09:34:05;;;;;;;1.25;1.00;;;;;;;23.60;47.12;95932.84;4894423;29;20027;-78
2022/11/17 09:36:31;;;;;;;3.00;1.55;;;;;;;23.94;46.10;95931.66;4901220;29;20060;-78
2022/11/17 09:38:56;;;;;;;3.10;0.65;;;;;;;25.05;44.29;95931.97;4908725;29;20028;-80
2022/11/17 09:41:25;;;;;;;0.25;0.25;;;;;;;25.07;44.61;95913.47;4895021;29;20055;-79
2022/11/17 09:44:05;;;;;;;0.30;0.10;;;;;;;25.76;42.59;95922.19;4922914;29;20062;-80
2022/11/17 09:46:42;;;;;;;0.00;0.00;;;;;;;26.04;42.27;95905.19;4889721;29;20032;-81
2022/11/17 09:49:57;;;;;;;0.77;0.47;;;;;;;26.61;40.48;95894.69;4891223;29;20095;-81
2022/11/17 09:52:25;;;;;;;0.00;0.00;;;;;;;26.31;41.11;95895.56;4876030;29;20050;-81
2022/11/17 09:55:00;;;;;;;0.65;0.30;;;;;;;26.80;40.78;95901.78;4883958;29;20514;-80
2022/11/17 09:57:28;;;;;;;0.10;0.10;;;;;;;26.46;40.50;95891.53;4890891;29;20080;-81
2022/11/17 10:00:17;;;;;;;0.00;0.00;;;;;;;25.99;41.84;95891.38;4899571;29;20504;-80
2022/11/17 10:02:44;;;;;;;0.82;0.55;;;;;;;26.20;41.47;95893.63;4882674;29;20046;-81
2022/11/17 10:05:14;;;;;;;1.60;1.38;;;;;;;26.95;40.60;95913.13;4893874;29;20133;-81
2022/11/17 10:07:46;;;;;;;1.85;1.30;;;;;;;27.37;38.62;95890.00;4925943;29;20075;-79
2022/11/17 10:10:15;;;;;;;25.10;14.93;;;;;;;26.90;40.58;95886.41;4883114;29;20036;-80
2022/11/17 10:12:45;;;;;;;5.13;3.03;;;;;;;25.80;41.54;95881.50;4897626;29;20028;-80
2022/11/17 10:15:24;;;;;;;4.82;2.50;;;;;;;25.44;42.28;95886.97;4882787;29;20060;-80
2022/11/17 10:17:50;;;;;;;4.75;3.00;;;;;;;25.06;43.29;95879.78;4906827;29;20035;-80
2022/11/17 10:20:19;;;;;;;3.15;1.88;;;;;;;24.64;43.56;95884.13;4897002;29;20118;-80
2022/11/17 10:22:46;;;;;;;3.55;2.00;;;;;;;23.63;46.30;95883.25;4906306;29;20508;-79
2022/11/17 10:25:35;;;;;;;9.35;2.65;;;;;;;22.80;47.86;95885.97;4885721;29;20495;-82
2022/11/17 10:28:01;;;;;;;7.35;2.00;;;;;;;22.82;47.69;95892.91;4900644;29;20042;-81
2022/11/17 10:30:27;;;;;;;2.75;1.90;;;;;;;22.72;47.51;95891.66;4909046;29;20023;-82
2022/11/17 10:32:57;;;;;;;5.22;2.67;;;;;;;22.15;50.10;95885.72;4892501;29;20032;-80
2022/11/17 10:35:25;;;;;;;4.07;2.70;;;;;;;22.67;49.37;95914.09;4911298;29;20027;-80
2022/11/17 10:38:16;;;;;;;5.97;2.63;;;;;;;22.68;48.75;95904.84;4896008;29;20035;-80
2022/11/17 10:40:42;;;;;;;3.22;2.38;;;;;;;24.33;45.56;95930.63;4898059;29;20039;-79
2022/11/17 10:43:11;;;;;;;4.05;2.25;;;;;;;25.91;43.22;95948.34;4928918;29;20039;-80
2022/11/17 10:45:43;;;;;;;1.70;1.45;;;;;;;27.05;40.59;95934.50;4931403;29;20455;-81
2022/11/17 10:48:30;;;;;;;5.60;2.83;;;;;;;28.29;37.67;95918.38;4893069;29;20036;-81
2022/11/17 10:50:59;;;;;;;4.25;2.30;;;;;;;28.31;37.90;95913.47;4875839;29;20131;-80
2022/11/17 10:53:40;;;;;;;3.05;2.00;;;;;;;29.29;36.76;95921.31;4910796;29;20059;-80
2022/11/17 10:56:20;;;;;;;1.90;1.63;;;;;;;29.77;36.04;95906.03;4905626;29;20068;-81
2022/11/17 10:59:01;;;;;;;2.05;1.70;;;;;;;30.85;33.59;95913.41;4897489;29;20044;-80
2022/11/17 11:01:38;;;;;;;2.72;1.80;;;;;;;30.41;34.19;95902.47;4906912;29;20030;-80
2022/11/17 11:04:05;;;;;;;5.43;3.78;;;;;;;30.51;34.60;95899.81;4905759;29;20035;-80
2022/11/17 11:06:33;;;;;;;4.38;1.70;;;;;;;29.82;34.46;95884.03;4895112;29;20031;-80
2022/11/17 11:09:15;;;;;;;2.20;1.45;;;;;;;28.05;36.32;95864.56;4916794;29;20028;-82
2022/11/17 11:11:46;;;;;;;1.55;1.20;;;;;;;27.99;36.52;95860.81;4900783;29;20035;-81
2022/11/17 11:14:32;;;;;;;1.48;1.20;;;;;;;29.31;34.84;95891.59;4889788;29;20036;-80
2022/11/17 11:16:58;;;;;;;1.73;1.02;;;;;;;28.65;34.86;95864.88;4907685;29;20424;-79
2022/11/17 11:19:24;;;;;;;1.70;1.20;;;;;;;28.77;34.76;95859.28;4893367;29;20122;-80
2022/11/17 11:22:29;;;;;;;0.93;0.80;;;;;;;28.52;34.69;95871.50;4887732;29;20037;-80
2022/11/17 11:25:13;;;;;;;0.60;0.60;;;;;;;28.27;35.61;95868.28;4884646;29;20123;-80
2022/11/17 11:27:41;;;;;;;1.75;1.60;;;;;;;27.97;35.93;95876.75;4907516;29;20452;-81
2022/11/17 11:30:12;;;;;;;1.73;1.50;;;;;;;26.53;37.76;95878.56;4907107;29;20039;-80
2022/11/17 11:32:50;;;;;;;2.90;2.30;;;;;;;25.74;40.18;95877.78;4894045;29;20103;-80
2022/11/17 11:35:43;;;;;;;2.83;1.50;;;;;;;25.09;41.21;95879.34;4927095;29;20484;-80
2022/11/17 11:38:46;;;;;;;3.25;2.45;;;;;;;24.00;43.94;95891.69;4901723;29;20127;-80
2022/11/17 11:41:20;;;;;;;10.15;6.22;;;;;;;23.38;45.49;95906.03;4911604;29;20110;-80
2022/11/17 11:44:01;;;;;;;6.47;4.72;;;;;;;22.81;46.08;95921.22;4905984;29;20099;-80
2022/11/17 11:47:04;;;;;;;2.10;1.67;;;;;;;21.76;48.67;95901.94;4888160;29;20460;-80
2022/11/17 11:49:36;;;;;;;1.70;1.40;;;;;;;21.26;49.98;95913.22;4915302;29;20095;-80
2022/11/17 11:52:05;;;;;;;4.40;1.90;;;;;;;21.06;51.16;95913.94;4907812;29;20035;-79
2022/11/17 11:54:44;;;;;;;2.88;1.70;;;;;;;21.01;51.99;95927.25;4885615;29;20035;-80
2022/11/17 11:57:14;;;;;;;3.88;1.70;;;;;;;21.50;50.61;95953.56;4895788;29;20151;-80
2022/11/17 11:59:54;;;;;;;3.03;1.52;;;;;;;22.85;48.49;95959.81;4917234;29;20068;-79
2022/11/17 12:02:29;;;;;;;1.42;1.33;;;;;;;24.59;44.84;95968.72;4916530;29;20024;-80
2022/11/17 12:04:57;;;;;;;6.55;1.90;;;;;;;25.67;42.30;95964.66;4916501;29;20024;-79
2022/11/17 12:07:39;;;;;;;1.75;1.35;;;;;;;27.54;39.00;95969.78;4907902;29;20095;-80
2022/11/17 12:10:43;;;;;;;2.28;1.50;;;;;;;28.65;37.01;95946.59;4913839;29;20078;-81
2022/11/17 12:13:16;;;;;;;1.50;1.17;;;;;;;29.05;36.19;95934.38;4930389;29;20043;-81
2022/11/17 12:15:41;;;;;;;2.13;1.55;;;;;;;28.99;36.17;95923.53;4887737;29;20038;-80
2022/11/17 12:18:33;;;;;;;3.55;1.33;;;;;;;28.40;37.13;95912.00;4899747;29;20031;-82
2022/11/17 12:21:02;;;;;;;2.22;1.63;;;;;;;29.27;36.08;95934.50;4890153;29;20036;-81
2022/11/17 12:23:59;;;;;;;2.85;1.52;;;;;;;30.21;34.18;95924.25;4916605;29;20058;-81
2022/11/17 12:26:30;;;;;;;3.85;2.45;;;;;;;30.60;33.61;95928.63;4925233;29;20112;-80
2022/11/17 12:29:20;;;;;;;4.85;2.78;;;;;;;30.82;33.43;95925.81;4907228;29;20145;-81
2022/11/17 12:31:49;;;;;;;5.40;2.78;;;;;;;30.40;34.02;95914.59;4914680;29;20019;-81
2022/11/17 12:34:30;;;;;;;2.15;1.45;;;;;;;29.57;34.53;95901.06;4894568;29;20115;-80
2022/11/17 12:37:14;;;;;;;2.00;1.80;;;;;;;29.31;35.82;95908.13;4881489;29;20534;-81
2022/11/17 12:39:56;;;;;;;2.85;2.10;;;;;;;29.25;35.40;95908.28;4913858;29;20043;-80
2022/11/17 12:42:21;;;;;;;3.22;2.08;;;;;;;28.51;36.26;95910.28;4899349;29;20554;-83
2022/11/17 12:44:54;;;;;;;6.88;1.95;;;;;;;27.89;37.65;95910.13;4891999;29;20032;-82
2022/11/17 12:47:28;;;;;;;2.38;1.85;;;;;;;26.10;40.10;95893.31;4900366;29;20409;-81
2022/11/17 12:50:11;;;;;;;5.47;3.25;;;;;;;24.87;42.38;95913.63;4905939;29;20532;-80
2022/11/17 12:53:10;;;;;;;3.75;1.52;;;;;;;24.95;42.20;95913.34;4892023;29;20032;-81
2022/11/17 12:55:54;;;;;;;4.90;1.88;;;;;;;25.01;43.14;95928.03;4932956;29;20131;-80
2022/11/17 12:58:24;;;;;;;3.35;1.70;;;;;;;25.74;41.76;95928.97;4899197;29;20044;-80
2022/11/17 13:01:16;;;;;;;5.50;1.98;;;;;;;26.10;40.56;95931.69;4915157;29;20061;-80
2022/11/17 13:03:54;;;;;;;2.10;1.55;;;;;;;26.10;40.29;95934.41;4933833;29;20027;-80